sensor_id;sensor_type;location;lat;lon;timestamp;temperature;humidity
8463;DHT22;4268;52.506;13.462;2022-11-30T00:00:46;4.80;99.90
8463;DHT22;4268;52.506;13.462;2022-11-30T00:03:12;4.90;99.90
8463;DHT22;4268;52.506;13.462;2022-11-30T00:05:37;4.90;99.90
8463;DHT22;4268;52.506;13.462;2022-11-30T00:08:03;4.90;99.90
8463;DHT22;4268;52.506;13.462;2022-11-30T00:10:28;4.80;99.90
8463;DHT22;4268;52.506;13.462;2022-11-30T00:12:54;4.80;99.90
8463;DHT22;4268;52.506;13.462;2022-11-30T00:15:19;4.80;99.90
8463;DHT22;4268;52.506;13.462;2022-11-30T00:17:45;4.80;99.90
8463;DHT22;4268;52.506;13.462;2022-11-30T00:20:13;4.90;99.90
8463;DHT22;4268;52.506;13.462;2022-11-30T00:22:39;4.90;99.90
8463;DHT22;4268;52.506;13.462;2022-11-30T00:25:05;4.90;99.90
8463;DHT22;4268;52.506;13.462;2022-11-30T00:27:32;4.90;99.90
8463;DHT22;4268;52.506;13.462;2022-11-30T00:29:59;4.90;99.90
8463;DHT22;4268;52.506;13.462;2022-11-30T00:32:26;4.90;99.90
8463;DHT22;4268;52.506;13.462;2022-11-30T00:34:51;4.80;99.90
8463;DHT22;4268;52.506;13.462;2022-11-30T00:37:17;4.80;99.90
8463;DHT22;4268;52.506;13.462;2022-11-30T00:39:42;4.90;99.90
8463;DHT22;4268;52.506;13.462;2022-11-30T00:42:08;4.90;99.90
8463;DHT22;4268;52.506;13.462;2022-11-30T00:44:33;4.90;99.90
8463;DHT22;4268;52.506;13.462;2022-11-30T00:46:59;4.90;99.90
8463;DHT22;4268;52.506;13.462;2022-11-30T00:49:24;4.90;99.90
8463;DHT22;4268;52.506;13.462;2022-11-30T00:51:50;4.80;99.90
8463;DHT22;4268;52.506;13.462;2022-11-30T00:54:15;4.80;99.90
8463;DHT22;4268;52.506;13.462;2022-11-30T00:56:41;4.80;99.90
8463;DHT22;4268;52.506;13.462;2022-11-30T00:59:06;4.80;99.90
8463;DHT22;4268;52.506;13.462;2022-11-30T01:01:32;4.80;99.90
8463;DHT22;4268;52.506;13.462;2022-11-30T01:03:57;4.70;99.90
8463;DHT22;4268;52.506;13.462;2022-11-30T01:06:23;4.80;99.90
8463;DHT22;4268;52.506;13.462;2022-11-30T01:08:49;4.80;99.90
8463;DHT22;4268;52.506;13.462;2022-11-30T01:11:18;4.80;99.90
8463;DHT22;4268;52.506;13.462;2022-11-30T01:13:44;4.80;99.90
8463;DHT22;4268;52.506;13.462;2022-11-30T01:16:13;4.80;99.90
8463;DHT22;4268;52.506;13.462;2022-11-30T01:18:40;4.70;99.90
8463;DHT22;4268;52.506;13.462;2022-11-30T01:21:08;4.70;99.90
8463;DHT22;4268;52.506;13.462;2022-11-30T01:23:34;4.70;99.90
8463;DHT22;4268;52.506;13.462;2022-11-30T01:25:59;4.70;99.90
8463;DHT22;4268;52.506;13.462;2022-11-30T01:28:25;4.70;99.90
8463;DHT22;4268;52.506;13.462;2022-11-30T01:31:01;4.70;99.90
8463;DHT22;4268;52.506;13.462;2022-11-30T01:33:28;4.60;99.90
8463;DHT22;4268;52.506;13.462;2022-11-30T01:36:09;4.70;99.90
8463;DHT22;4268;52.506;13.462;2022-11-30T01:38:40;4.70;99.90
8463;DHT22;4268;52.506;13.462;2022-11-30T01:41:07;4.70;99.90
8463;DHT22;4268;52.506;13.462;2022-11-30T01:46:37;4.60;99.90
8463;DHT22;4268;52.506;13.462;2022-11-30T01:49:14;4.60;99.90
8463;DHT22;4268;52.506;13.462;2022-11-30T01:54:11;4.60;99.90
8463;DHT22;4268;52.506;13.462;2022-11-30T01:56:40;4.60;99.90
8463;DHT22;4268;52.506;13.462;2022-11-30T01:59:07;4.60;99.90
8463;DHT22;4268;52.506;13.462;2022-11-30T02:01:33;4.60;99.90
8463;DHT22;4268;52.506;13.462;2022-11-30T02:04:02;4.60;99.90
8463;DHT22;4268;52.506;13.462;2022-11-30T02:06:28;4.60;99.90
8463;DHT22;4268;52.506;13.462;2022-11-30T02:08:54;4.50;99.90
8463;DHT22;4268;52.506;13.462;2022-11-30T02:11:21;4.50;99.90
8463;DHT22;4268;52.506;13.462;2022-11-30T02:19:53;4.50;99.90
8463;DHT22;4268;52.506;13.462;2022-11-30T02:25:32;4.50;99.90
8463;DHT22;4268;52.506;13.462;2022-11-30T02:30:47;4.50;99.90
8463;DHT22;4268;52.506;13.462;2022-11-30T02:33:16;4.50;99.90
8463;DHT22;4268;52.506;13.462;2022-11-30T02:35:45;4.50;99.90
8463;DHT22;4268;52.506;13.462;2022-11-30T02:38:13;4.50;99.90
8463;DHT22;4268;52.506;13.462;2022-11-30T02:40:39;4.60;99.90
8463;DHT22;4268;52.506;13.462;2022-11-30T02:43:05;4.60;99.90
8463;DHT22;4268;52.506;13.462;2022-11-30T02:45:52;4.60;99.90
8463;DHT22;4268;52.506;13.462;2022-11-30T02:48:39;4.60;99.90
8463;DHT22;4268;52.506;13.462;2022-11-30T02:51:09;4.60;99.90
8463;DHT22;4268;52.506;13.462;2022-11-30T02:53:37;4.50;99.90
8463;DHT22;4268;52.506;13.462;2022-11-30T02:56:03;4.60;99.90
8463;DHT22;4268;52.506;13.462;2022-11-30T02:58:28;4.60;99.90
8463;DHT22;4268;52.506;13.462;2022-11-30T03:00:54;4.60;99.90
8463;DHT22;4268;52.506;13.462;2022-11-30T03:03:19;4.50;99.90
8463;DHT22;4268;52.506;13.462;2022-11-30T03:05:46;4.50;99.90
8463;DHT22;4268;52.506;13.462;2022-11-30T03:08:11;4.50;99.90
8463;DHT22;4268;52.506;13.462;2022-11-30T03:10:37;4.50;99.90
8463;DHT22;4268;52.506;13.462;2022-11-30T03:13:02;4.50;99.90
8463;DHT22;4268;52.506;13.462;2022-11-30T03:15:28;4.60;99.90
8463;DHT22;4268;52.506;13.462;2022-11-30T03:17:53;4.50;99.90
8463;DHT22;4268;52.506;13.462;2022-11-30T03:20:19;4.50;99.90
8463;DHT22;4268;52.506;13.462;2022-11-30T03:22:44;4.50;99.90
8463;DHT22;4268;52.506;13.462;2022-11-30T03:25:10;4.60;99.90
8463;DHT22;4268;52.506;13.462;2022-11-30T03:27:36;4.60;99.90
8463;DHT22;4268;52.506;13.462;2022-11-30T03:30:01;4.50;99.90
8463;DHT22;4268;52.506;13.462;2022-11-30T03:32:27;4.50;99.90
8463;DHT22;4268;52.506;13.462;2022-11-30T03:34:54;4.60;99.90
8463;DHT22;4268;52.506;13.462;2022-11-30T03:37:20;4.50;99.90
8463;DHT22;4268;52.506;13.462;2022-11-30T03:39:45;4.50;99.90
8463;DHT22;4268;52.506;13.462;2022-11-30T03:42:11;4.50;99.90
8463;DHT22;4268;52.506;13.462;2022-11-30T03:44:36;4.50;99.90
8463;DHT22;4268;52.506;13.462;2022-11-30T03:47:01;4.50;99.90
8463;DHT22;4268;52.506;13.462;2022-11-30T03:49:27;4.50;99.90
8463;DHT22;4268;52.506;13.462;2022-11-30T03:51:52;4.50;99.90
8463;DHT22;4268;52.506;13.462;2022-11-30T03:54:18;4.50;99.90
8463;DHT22;4268;52.506;13.462;2022-11-30T03:56:43;4.50;99.90
8463;DHT22;4268;52.506;13.462;2022-11-30T03:59:09;4.50;99.90
8463;DHT22;4268;52.506;13.462;2022-11-30T04:01:34;4.40;99.90
8463;DHT22;4268;52.506;13.462;2022-11-30T04:04:01;4.40;99.90
8463;DHT22;4268;52.506;13.462;2022-11-30T04:06:26;4.50;99.90
8463;DHT22;4268;52.506;13.462;2022-11-30T04:08:52;4.50;99.90
8463;DHT22;4268;52.506;13.462;2022-11-30T04:11:20;4.40;99.90
8463;DHT22;4268;52.506;13.462;2022-11-30T04:13:45;4.50;99.90
8463;DHT22;4268;52.506;13.462;2022-11-30T04:16:11;4.50;99.90
8463;DHT22;4268;52.506;13.462;2022-11-30T04:18:37;4.40;99.90
8463;DHT22;4268;52.506;13.462;2022-11-30T04:21:03;4.50;99.90
8463;DHT22;4268;52.506;13.462;2022-11-30T04:23:32;4.40;99.90
8463;DHT22;4268;52.506;13.462;2022-11-30T04:25:58;4.50;99.90
8463;DHT22;4268;52.506;13.462;2022-11-30T04:28:23;4.40;99.90
8463;DHT22;4268;52.506;13.462;2022-11-30T04:30:49;4.40;99.90
8463;DHT22;4268;52.506;13.462;2022-11-30T04:33:15;4.40;99.90
8463;DHT22;4268;52.506;13.462;2022-11-30T04:35:56;4.40;99.90
8463;DHT22;4268;52.506;13.462;2022-11-30T04:38:22;4.30;99.90
8463;DHT22;4268;52.506;13.462;2022-11-30T04:40:48;4.30;99.90
8463;DHT22;4268;52.506;13.462;2022-11-30T04:43:13;4.30;99.90
8463;DHT22;4268;52.506;13.462;2022-11-30T04:45:39;4.30;99.90
8463;DHT22;4268;52.506;13.462;2022-11-30T04:48:06;4.30;99.90
8463;DHT22;4268;52.506;13.462;2022-11-30T04:50:32;4.30;99.90
8463;DHT22;4268;52.506;13.462;2022-11-30T04:52:57;4.30;99.90
8463;DHT22;4268;52.506;13.462;2022-11-30T04:55:23;4.30;99.90
8463;DHT22;4268;52.506;13.462;2022-11-30T04:57:49;4.30;99.90
8463;DHT22;4268;52.506;13.462;2022-11-30T05:00:15;4.30;99.90
8463;DHT22;4268;52.506;13.462;2022-11-30T05:02:42;4.30;99.90
8463;DHT22;4268;52.506;13.462;2022-11-30T05:05:08;4.30;99.90
8463;DHT22;4268;52.506;13.462;2022-11-30T05:07:34;4.30;99.90
8463;DHT22;4268;52.506;13.462;2022-11-30T05:09:59;4.30;99.90
8463;DHT22;4268;52.506;13.462;2022-11-30T05:12:25;4.30;99.90
8463;DHT22;4268;52.506;13.462;2022-11-30T05:14:50;4.30;99.90
8463;DHT22;4268;52.506;13.462;2022-11-30T05:17:16;4.30;99.90
8463;DHT22;4268;52.506;13.462;2022-11-30T05:19:41;4.30;99.90
8463;DHT22;4268;52.506;13.462;2022-11-30T05:22:06;4.30;99.90
8463;DHT22;4268;52.506;13.462;2022-11-30T05:24:32;4.30;99.90
8463;DHT22;4268;52.506;13.462;2022-11-30T05:26:58;4.30;99.90
8463;DHT22;4268;52.506;13.462;2022-11-30T05:29:24;4.30;99.90
8463;DHT22;4268;52.506;13.462;2022-11-30T05:31:49;4.30;99.90
8463;DHT22;4268;52.506;13.462;2022-11-30T05:34:15;4.30;99.90
8463;DHT22;4268;52.506;13.462;2022-11-30T05:36:40;4.30;99.90
8463;DHT22;4268;52.506;13.462;2022-11-30T05:39:06;4.30;99.90
8463;DHT22;4268;52.506;13.462;2022-11-30T05:41:31;4.30;99.90
8463;DHT22;4268;52.506;13.462;2022-11-30T05:43:57;4.30;99.90
8463;DHT22;4268;52.506;13.462;2022-11-30T05:46:22;4.30;99.90
8463;DHT22;4268;52.506;13.462;2022-11-30T05:48:48;4.30;99.90
8463;DHT22;4268;52.506;13.462;2022-11-30T05:51:15;4.30;99.90
8463;DHT22;4268;52.506;13.462;2022-11-30T05:53:42;4.30;99.90
8463;DHT22;4268;52.506;13.462;2022-11-30T05:56:10;4.40;99.90
8463;DHT22;4268;52.506;13.462;2022-11-30T05:58:36;4.30;99.90
8463;DHT22;4268;52.506;13.462;2022-11-30T06:01:01;4.30;99.90
8463;DHT22;4268;52.506;13.462;2022-11-30T06:03:28;4.30;99.90
8463;DHT22;4268;52.506;13.462;2022-11-30T06:05:54;4.30;99.90
8463;DHT22;4268;52.506;13.462;2022-11-30T06:08:20;4.30;99.90
8463;DHT22;4268;52.506;13.462;2022-11-30T06:10:46;4.30;99.90
8463;DHT22;4268;52.506;13.462;2022-11-30T06:13:11;4.30;99.90
8463;DHT22;4268;52.506;13.462;2022-11-30T06:15:38;4.30;99.90
8463;DHT22;4268;52.506;13.462;2022-11-30T06:18:04;4.30;99.90
8463;DHT22;4268;52.506;13.462;2022-11-30T06:20:30;4.30;99.90
8463;DHT22;4268;52.506;13.462;2022-11-30T06:22:55;4.30;99.90
8463;DHT22;4268;52.506;13.462;2022-11-30T06:25:22;4.30;99.90
8463;DHT22;4268;52.506;13.462;2022-11-30T06:27:47;4.30;99.90
8463;DHT22;4268;52.506;13.462;2022-11-30T06:30:13;4.30;99.90
8463;DHT22;4268;52.506;13.462;2022-11-30T06:32:39;4.30;99.90
8463;DHT22;4268;52.506;13.462;2022-11-30T06:35:05;4.30;99.90
8463;DHT22;4268;52.506;13.462;2022-11-30T06:37:33;4.30;99.90
8463;DHT22;4268;52.506;13.462;2022-11-30T06:39:59;4.30;99.90
8463;DHT22;4268;52.506;13.462;2022-11-30T06:42:24;4.30;99.90
8463;DHT22;4268;52.506;13.462;2022-11-30T06:44:50;4.30;99.90
8463;DHT22;4268;52.506;13.462;2022-11-30T06:47:15;4.30;99.90
8463;DHT22;4268;52.506;13.462;2022-11-30T06:49:41;4.30;99.90
8463;DHT22;4268;52.506;13.462;2022-11-30T06:52:06;4.40;99.90
8463;DHT22;4268;52.506;13.462;2022-11-30T06:54:32;4.40;99.90
8463;DHT22;4268;52.506;13.462;2022-11-30T06:56:57;4.40;99.90
8463;DHT22;4268;52.506;13.462;2022-11-30T06:59:23;4.40;99.90
8463;DHT22;4268;52.506;13.462;2022-11-30T07:01:48;4.40;99.90
8463;DHT22;4268;52.506;13.462;2022-11-30T07:04:14;4.40;99.90
8463;DHT22;4268;52.506;13.462;2022-11-30T07:06:39;4.40;99.90
8463;DHT22;4268;52.506;13.462;2022-11-30T07:09:05;4.50;99.90
8463;DHT22;4268;52.506;13.462;2022-11-30T07:11:30;4.50;99.90
8463;DHT22;4268;52.506;13.462;2022-11-30T07:13:57;4.50;99.90
8463;DHT22;4268;52.506;13.462;2022-11-30T07:16:23;4.50;99.90
8463;DHT22;4268;52.506;13.462;2022-11-30T07:18:48;4.50;99.90
8463;DHT22;4268;52.506;13.462;2022-11-30T07:21:14;4.50;99.90
8463;DHT22;4268;52.506;13.462;2022-11-30T07:23:39;4.40;99.90
8463;DHT22;4268;52.506;13.462;2022-11-30T07:26:24;4.50;99.90
8463;DHT22;4268;52.506;13.462;2022-11-30T07:28:50;4.40;99.90
8463;DHT22;4268;52.506;13.462;2022-11-30T07:31:22;4.50;99.90
8463;DHT22;4268;52.506;13.462;2022-11-30T07:33:48;4.50;99.90
8463;DHT22;4268;52.506;13.462;2022-11-30T07:36:15;4.50;99.90
8463;DHT22;4268;52.506;13.462;2022-11-30T07:38:42;4.50;99.90
8463;DHT22;4268;52.506;13.462;2022-11-30T07:41:07;4.50;99.90
8463;DHT22;4268;52.506;13.462;2022-11-30T07:43:33;4.50;99.90
8463;DHT22;4268;52.506;13.462;2022-11-30T07:45:59;4.50;99.90
8463;DHT22;4268;52.506;13.462;2022-11-30T07:48:25;4.50;99.90
8463;DHT22;4268;52.506;13.462;2022-11-30T07:50:50;4.50;99.90
8463;DHT22;4268;52.506;13.462;2022-11-30T07:53:16;4.50;99.90
8463;DHT22;4268;52.506;13.462;2022-11-30T07:55:42;4.40;99.90
8463;DHT22;4268;52.506;13.462;2022-11-30T07:58:08;4.50;99.90
8463;DHT22;4268;52.506;13.462;2022-11-30T08:00:35;4.40;99.90
8463;DHT22;4268;52.506;13.462;2022-11-30T08:03:01;4.50;99.90
8463;DHT22;4268;52.506;13.462;2022-11-30T08:05:26;4.50;99.90
8463;DHT22;4268;52.506;13.462;2022-11-30T08:07:52;4.50;99.90
8463;DHT22;4268;52.506;13.462;2022-11-30T08:10:21;4.50;99.90
8463;DHT22;4268;52.506;13.462;2022-11-30T08:12:48;4.50;99.90
8463;DHT22;4268;52.506;13.462;2022-11-30T08:15:14;4.50;99.90
8463;DHT22;4268;52.506;13.462;2022-11-30T08:17:40;4.60;99.90
8463;DHT22;4268;52.506;13.462;2022-11-30T08:20:06;4.60;99.90
8463;DHT22;4268;52.506;13.462;2022-11-30T08:22:33;4.60;99.90
8463;DHT22;4268;52.506;13.462;2022-11-30T08:24:59;4.60;99.90
8463;DHT22;4268;52.506;13.462;2022-11-30T08:27:24;4.70;99.90
8463;DHT22;4268;52.506;13.462;2022-11-30T08:29:51;4.70;99.90
8463;DHT22;4268;52.506;13.462;2022-11-30T08:32:16;4.70;99.90
8463;DHT22;4268;52.506;13.462;2022-11-30T08:34:42;4.70;99.90
8463;DHT22;4268;52.506;13.462;2022-11-30T08:37:07;4.70;99.90
8463;DHT22;4268;52.506;13.462;2022-11-30T08:39:33;4.70;99.90
8463;DHT22;4268;52.506;13.462;2022-11-30T08:42:00;4.70;99.90
8463;DHT22;4268;52.506;13.462;2022-11-30T08:44:27;4.70;99.90
8463;DHT22;4268;52.506;13.462;2022-11-30T08:46:53;4.70;99.90
8463;DHT22;4268;52.506;13.462;2022-11-30T08:49:20;4.70;99.90
8463;DHT22;4268;52.506;13.462;2022-11-30T08:51:47;4.70;99.90
8463;DHT22;4268;52.506;13.462;2022-11-30T08:54:12;4.70;99.90
8463;DHT22;4268;52.506;13.462;2022-11-30T08:56:38;4.70;99.90
8463;DHT22;4268;52.506;13.462;2022-11-30T08:59:04;4.80;99.90
8463;DHT22;4268;52.506;13.462;2022-11-30T09:01:29;4.80;99.90
8463;DHT22;4268;52.506;13.462;2022-11-30T09:03:56;4.80;99.90
8463;DHT22;4268;52.506;13.462;2022-11-30T09:06:27;4.80;99.90
8463;DHT22;4268;52.506;13.462;2022-11-30T09:08:55;4.90;99.90
8463;DHT22;4268;52.506;13.462;2022-11-30T09:11:26;4.90;99.90
8463;DHT22;4268;52.506;13.462;2022-11-30T09:13:54;4.90;99.90
8463;DHT22;4268;52.506;13.462;2022-11-30T09:16:20;5.00;99.90
8463;DHT22;4268;52.506;13.462;2022-11-30T09:18:49;5.00;99.90
8463;DHT22;4268;52.506;13.462;2022-11-30T09:21:18;5.00;99.90
8463;DHT22;4268;52.506;13.462;2022-11-30T09:23:44;5.00;99.90
8463;DHT22;4268;52.506;13.462;2022-11-30T09:26:12;5.00;99.90
8463;DHT22;4268;52.506;13.462;2022-11-30T09:28:39;5.00;99.90
8463;DHT22;4268;52.506;13.462;2022-11-30T09:31:10;5.10;99.90
8463;DHT22;4268;52.506;13.462;2022-11-30T09:33:37;5.20;99.90
8463;DHT22;4268;52.506;13.462;2022-11-30T09:36:08;5.20;99.90
8463;DHT22;4268;52.506;13.462;2022-11-30T09:38:34;5.20;99.90
8463;DHT22;4268;52.506;13.462;2022-11-30T09:41:04;5.30;99.90
8463;DHT22;4268;52.506;13.462;2022-11-30T09:47:03;5.40;99.90
8463;DHT22;4268;52.506;13.462;2022-11-30T09:49:39;5.40;99.90
8463;DHT22;4268;52.506;13.462;2022-11-30T09:52:12;5.40;99.90
8463;DHT22;4268;52.506;13.462;2022-11-30T09:54:42;5.40;99.90
8463;DHT22;4268;52.506;13.462;2022-11-30T09:57:28;5.50;99.90
8463;DHT22;4268;52.506;13.462;2022-11-30T10:00:00;5.50;99.90
8463;DHT22;4268;52.506;13.462;2022-11-30T10:02:31;5.50;99.90
8463;DHT22;4268;52.506;13.462;2022-11-30T10:04:58;5.60;99.90
8463;DHT22;4268;52.506;13.462;2022-11-30T10:12:59;5.50;99.90
8463;DHT22;4268;52.506;13.462;2022-11-30T10:15:32;5.50;99.90
8463;DHT22;4268;52.506;13.462;2022-11-30T10:18:25;5.50;99.90
8463;DHT22;4268;52.506;13.462;2022-11-30T10:21:11;5.50;99.90
8463;DHT22;4268;52.506;13.462;2022-11-30T10:26:33;5.70;99.90
8463;DHT22;4268;52.506;13.462;2022-11-30T10:29:28;5.70;99.90
8463;DHT22;4268;52.506;13.462;2022-11-30T10:31:58;5.80;99.90
8463;DHT22;4268;52.506;13.462;2022-11-30T10:34:33;5.80;99.90
8463;DHT22;4268;52.506;13.462;2022-11-30T10:37:14;5.80;99.90
8463;DHT22;4268;52.506;13.462;2022-11-30T10:39:52;5.80;99.90
8463;DHT22;4268;52.506;13.462;2022-11-30T10:42:39;5.80;99.90
8463;DHT22;4268;52.506;13.462;2022-11-30T10:45:11;5.80;99.90
8463;DHT22;4268;52.506;13.462;2022-11-30T10:47:46;5.90;99.90
8463;DHT22;4268;52.506;13.462;2022-11-30T10:50:14;5.90;99.90
8463;DHT22;4268;52.506;13.462;2022-11-30T10:52:44;6.00;99.90
8463;DHT22;4268;52.506;13.462;2022-11-30T10:55:35;6.00;99.90
8463;DHT22;4268;52.506;13.462;2022-11-30T10:58:12;6.00;99.90
8463;DHT22;4268;52.506;13.462;2022-11-30T11:00:41;6.00;99.90
8463;DHT22;4268;52.506;13.462;2022-11-30T11:03:22;6.10;99.90
8463;DHT22;4268;52.506;13.462;2022-11-30T11:06:05;6.10;99.90
8463;DHT22;4268;52.506;13.462;2022-11-30T11:08:32;6.10;99.90
8463;DHT22;4268;52.506;13.462;2022-11-30T11:10:57;6.10;99.90
8463;DHT22;4268;52.506;13.462;2022-11-30T11:13:40;6.10;99.90
8463;DHT22;4268;52.506;13.462;2022-11-30T11:16:11;6.10;99.90
8463;DHT22;4268;52.506;13.462;2022-11-30T11:18:55;6.00;99.90
8463;DHT22;4268;52.506;13.462;2022-11-30T11:21:21;6.00;99.90
8463;DHT22;4268;52.506;13.462;2022-11-30T11:23:50;6.00;99.90
8463;DHT22;4268;52.506;13.462;2022-11-30T11:26:19;6.00;99.90
8463;DHT22;4268;52.506;13.462;2022-11-30T11:28:48;6.00;99.90
8463;DHT22;4268;52.506;13.462;2022-11-30T11:31:35;6.00;99.90
8463;DHT22;4268;52.506;13.462;2022-11-30T11:34:03;6.10;99.90
8463;DHT22;4268;52.506;13.462;2022-11-30T11:36:33;6.10;99.90
8463;DHT22;4268;52.506;13.462;2022-11-30T11:39:01;6.10;99.90
8463;DHT22;4268;52.506;13.462;2022-11-30T11:41:30;6.10;99.90
8463;DHT22;4268;52.506;13.462;2022-11-30T11:46:27;6.10;99.90
8463;DHT22;4268;52.506;13.462;2022-11-30T11:49:23;6.10;99.90
8463;DHT22;4268;52.506;13.462;2022-11-30T11:54:39;6.10;99.90
8463;DHT22;4268;52.506;13.462;2022-11-30T11:57:14;6.10;99.90
8463;DHT22;4268;52.506;13.462;2022-11-30T11:59:48;6.10;99.90
8463;DHT22;4268;52.506;13.462;2022-11-30T12:02:33;6.10;99.90
8463;DHT22;4268;52.506;13.462;2022-11-30T12:05:15;6.00;99.90
8463;DHT22;4268;52.506;13.462;2022-11-30T12:08:14;6.00;99.90
8463;DHT22;4268;52.506;13.462;2022-11-30T12:10:48;5.90;99.90
8463;DHT22;4268;52.506;13.462;2022-11-30T12:13:17;5.90;99.90
8463;DHT22;4268;52.506;13.462;2022-11-30T12:16:04;5.90;99.90
8463;DHT22;4268;52.506;13.462;2022-11-30T12:18:48;5.90;99.90
8463;DHT22;4268;52.506;13.462;2022-11-30T12:21:53;5.90;99.90
8463;DHT22;4268;52.506;13.462;2022-11-30T12:27:19;5.90;99.90
8463;DHT22;4268;52.506;13.462;2022-11-30T12:34:52;6.10;99.90
8463;DHT22;4268;52.506;13.462;2022-11-30T12:37:47;6.00;99.90
8463;DHT22;4268;52.506;13.462;2022-11-30T12:40:46;5.90;99.90
8463;DHT22;4268;52.506;13.462;2022-11-30T12:43:23;5.80;99.90
8463;DHT22;4268;52.506;13.462;2022-11-30T12:45:58;5.80;99.90
8463;DHT22;4268;52.506;13.462;2022-11-30T12:49:04;5.60;99.90
8463;DHT22;4268;52.506;13.462;2022-11-30T12:51:43;5.80;99.90
8463;DHT22;4268;52.506;13.462;2022-11-30T12:54:21;5.80;99.90
8463;DHT22;4268;52.506;13.462;2022-11-30T12:57:03;5.70;99.90
8463;DHT22;4268;52.506;13.462;2022-11-30T12:59:42;5.70;99.90
8463;DHT22;4268;52.506;13.462;2022-11-30T13:04:45;5.60;99.90
8463;DHT22;4268;52.506;13.462;2022-11-30T13:07:33;5.50;99.90
8463;DHT22;4268;52.506;13.462;2022-11-30T13:12:38;5.30;99.90
8463;DHT22;4268;52.506;13.462;2022-11-30T13:15:12;5.30;99.90
8463;DHT22;4268;52.506;13.462;2022-11-30T13:17:40;5.30;99.90
8463;DHT22;4268;52.506;13.462;2022-11-30T13:20:16;5.30;99.90
8463;DHT22;4268;52.506;13.462;2022-11-30T13:23:12;5.20;99.90
8463;DHT22;4268;52.506;13.462;2022-11-30T13:26:01;5.20;99.90
8463;DHT22;4268;52.506;13.462;2022-11-30T13:31:24;5.10;99.90
8463;DHT22;4268;52.506;13.462;2022-11-30T13:41:41;4.80;99.90
8463;DHT22;4268;52.506;13.462;2022-11-30T13:44:32;4.60;99.90
8463;DHT22;4268;52.506;13.462;2022-11-30T13:47:00;4.50;99.90
8463;DHT22;4268;52.506;13.462;2022-11-30T13:49:32;4.40;99.90
8463;DHT22;4268;52.506;13.462;2022-11-30T13:52:00;4.40;99.90
8463;DHT22;4268;52.506;13.462;2022-11-30T13:54:45;4.30;99.90
8463;DHT22;4268;52.506;13.462;2022-11-30T13:59:58;4.10;99.90
8463;DHT22;4268;52.506;13.462;2022-11-30T14:10:27;3.80;99.90
8463;DHT22;4268;52.506;13.462;2022-11-30T14:20:47;3.50;99.90
8463;DHT22;4268;52.506;13.462;2022-11-30T14:23:31;3.30;99.90
8463;DHT22;4268;52.506;13.462;2022-11-30T14:26:03;3.20;99.90
8463;DHT22;4268;52.506;13.462;2022-11-30T14:28:54;3.10;99.90
8463;DHT22;4268;52.506;13.462;2022-11-30T14:31:24;3.00;99.90
8463;DHT22;4268;52.506;13.462;2022-11-30T14:33:57;2.90;99.90
8463;DHT22;4268;52.506;13.462;2022-11-30T14:36:32;2.90;99.90
8463;DHT22;4268;52.506;13.462;2022-11-30T14:38:58;2.80;99.90
8463;DHT22;4268;52.506;13.462;2022-11-30T14:41:26;2.70;99.90
8463;DHT22;4268;52.506;13.462;2022-11-30T14:44:04;2.70;99.90
8463;DHT22;4268;52.506;13.462;2022-11-30T14:46:31;2.70;99.90
8463;DHT22;4268;52.506;13.462;2022-11-30T14:49:11;2.80;99.90
8463;DHT22;4268;52.506;13.462;2022-11-30T14:51:39;2.80;99.90
8463;DHT22;4268;52.506;13.462;2022-11-30T14:54:14;2.90;99.90
8463;DHT22;4268;52.506;13.462;2022-11-30T14:56:46;2.90;99.90
8463;DHT22;4268;52.506;13.462;2022-11-30T14:59:24;2.90;99.90
8463;DHT22;4268;52.506;13.462;2022-11-30T15:02:01;2.80;99.90
8463;DHT22;4268;52.506;13.462;2022-11-30T15:04:28;2.70;99.90
8463;DHT22;4268;52.506;13.462;2022-11-30T15:06:55;2.60;99.90
8463;DHT22;4268;52.506;13.462;2022-11-30T15:09:27;2.50;99.90
8463;DHT22;4268;52.506;13.462;2022-11-30T15:11:55;2.40;99.90
8463;DHT22;4268;52.506;13.462;2022-11-30T15:14:21;2.40;99.90
8463;DHT22;4268;52.506;13.462;2022-11-30T15:16:51;2.30;99.90
8463;DHT22;4268;52.506;13.462;2022-11-30T15:21:46;2.30;99.90
8463;DHT22;4268;52.506;13.462;2022-11-30T15:24:11;2.30;99.90
8463;DHT22;4268;52.506;13.462;2022-11-30T15:26:52;2.30;99.90
8463;DHT22;4268;52.506;13.462;2022-11-30T15:29:31;2.30;99.90
8463;DHT22;4268;52.506;13.462;2022-11-30T15:31:59;2.30;99.90
8463;DHT22;4268;52.506;13.462;2022-11-30T15:34:30;2.30;99.90
8463;DHT22;4268;52.506;13.462;2022-11-30T15:36:58;2.30;99.90
8463;DHT22;4268;52.506;13.462;2022-11-30T15:39:26;2.30;99.90
8463;DHT22;4268;52.506;13.462;2022-11-30T15:41:59;2.30;99.90
8463;DHT22;4268;52.506;13.462;2022-11-30T15:44:37;2.30;99.90
8463;DHT22;4268;52.506;13.462;2022-11-30T15:47:06;2.30;99.90
8463;DHT22;4268;52.506;13.462;2022-11-30T15:49:33;2.30;99.90
8463;DHT22;4268;52.506;13.462;2022-11-30T15:52:02;2.30;99.90
8463;DHT22;4268;52.506;13.462;2022-11-30T15:54:48;2.30;99.90
8463;DHT22;4268;52.506;13.462;2022-11-30T15:57:17;2.20;99.90
8463;DHT22;4268;52.506;13.462;2022-11-30T15:59:43;2.20;99.90
8463;DHT22;4268;52.506;13.462;2022-11-30T16:02:27;2.20;99.90
8463;DHT22;4268;52.506;13.462;2022-11-30T16:07:27;2.30;99.90
8463;DHT22;4268;52.506;13.462;2022-11-30T16:10:12;2.40;99.90
8463;DHT22;4268;52.506;13.462;2022-11-30T16:12:38;2.40;99.90
8463;DHT22;4268;52.506;13.462;2022-11-30T16:17:48;2.40;99.90
8463;DHT22;4268;52.506;13.462;2022-11-30T16:20:14;2.40;99.90
8463;DHT22;4268;52.506;13.462;2022-11-30T16:22:43;2.50;99.90
8463;DHT22;4268;52.506;13.462;2022-11-30T16:25:14;2.50;99.90
8463;DHT22;4268;52.506;13.462;2022-11-30T16:27:40;2.50;99.90
8463;DHT22;4268;52.506;13.462;2022-11-30T16:30:07;2.40;99.90
8463;DHT22;4268;52.506;13.462;2022-11-30T16:32:32;2.50;99.90
8463;DHT22;4268;52.506;13.462;2022-11-30T16:34:58;2.50;99.90
8463;DHT22;4268;52.506;13.462;2022-11-30T16:37:23;2.40;99.90
8463;DHT22;4268;52.506;13.462;2022-11-30T16:39:49;2.50;99.90
8463;DHT22;4268;52.506;13.462;2022-11-30T16:42:14;2.40;99.90
8463;DHT22;4268;52.506;13.462;2022-11-30T16:44:40;2.50;99.90
8463;DHT22;4268;52.506;13.462;2022-11-30T16:47:05;2.50;99.90
8463;DHT22;4268;52.506;13.462;2022-11-30T16:49:31;2.50;99.90
8463;DHT22;4268;52.506;13.462;2022-11-30T16:51:56;2.50;99.90
8463;DHT22;4268;52.506;13.462;2022-11-30T16:54:21;2.50;99.90
8463;DHT22;4268;52.506;13.462;2022-11-30T16:56:47;2.50;99.90
8463;DHT22;4268;52.506;13.462;2022-11-30T16:59:13;2.50;99.90
8463;DHT22;4268;52.506;13.462;2022-11-30T17:01:47;2.60;99.90
8463;DHT22;4268;52.506;13.462;2022-11-30T17:04:25;2.50;99.90
8463;DHT22;4268;52.506;13.462;2022-11-30T17:06:53;2.50;99.90
8463;DHT22;4268;52.506;13.462;2022-11-30T17:09:20;2.50;99.90
8463;DHT22;4268;52.506;13.462;2022-11-30T17:11:48;2.40;99.90
8463;DHT22;4268;52.506;13.462;2022-11-30T17:14:17;2.50;99.90
8463;DHT22;4268;52.506;13.462;2022-11-30T17:16:43;2.50;99.90
8463;DHT22;4268;52.506;13.462;2022-11-30T17:19:09;2.50;99.90
8463;DHT22;4268;52.506;13.462;2022-11-30T17:21:37;2.50;99.90
8463;DHT22;4268;52.506;13.462;2022-11-30T17:24:03;2.40;99.90
8463;DHT22;4268;52.506;13.462;2022-11-30T17:26:29;2.40;99.90
8463;DHT22;4268;52.506;13.462;2022-11-30T17:28:55;2.40;99.90
8463;DHT22;4268;52.506;13.462;2022-11-30T17:31:20;2.40;99.90
8463;DHT22;4268;52.506;13.462;2022-11-30T17:33:46;2.40;99.90
8463;DHT22;4268;52.506;13.462;2022-11-30T17:36:13;2.50;99.90
8463;DHT22;4268;52.506;13.462;2022-11-30T17:38:39;2.40;99.90
8463;DHT22;4268;52.506;13.462;2022-11-30T17:41:12;2.40;99.90